This is the latest recevied weather packets stored in our database for station/object W0AKY-13. If no packets are shown the sender has not sent any weather packets the latest 10 day(s).
| Time | Temp. | Humidity | Pressure | Rain* | Wind** | Luminosity | Snow |
|---|---|---|---|---|---|---|---|
| 1777409927 | 9.44° C | 88% | 1018.8 hPa | 0 mm | - | 28 W/m² | - |
| 1777408711 | 10° C | 84% | 1018.6 hPa | 0 mm | - | 76 W/m² | - |
| 1777406578 | 11.11° C | 69% | 1018.4 hPa | 0 mm | - | 34 W/m² | - |
| 1777405062 | 11.11° C | 66% | 1018.4 hPa | 0 mm | - | 89 W/m² | - |
| 1777404757 | 11.67° C | 67% | 1018.7 hPa | 0 mm | - | 95 W/m² | - |
| 1777404454 | 11.67° C | 70% | 1019 hPa | 0 mm | - | 75 W/m² | - |
| 1777404150 | 11.67° C | 71% | 1018.8 hPa | 0 mm | - | 101 W/m² | - |
| 1777403846 | 11.67° C | 68% | 1018.8 hPa | 0 mm | - | 118 W/m² | - |
| 1777403540 | 11.11° C | 69% | 1018.6 hPa | 0 mm | - | 100 W/m² | - |
| 1777403235 | 11.11° C | 69% | 1018.9 hPa | 0 mm | - | 50 W/m² | - |
| 1777399597 | 11.67° C | 64% | 1018.9 hPa | 0 mm | - | 59 W/m² | - |
| 1777397779 | 12.22° C | 62% | 1019.1 hPa | 0 mm | - | 224 W/m² | - |
| 1777397474 | 12.78° C | 61% | 1019 hPa | 0 mm | - | 131 W/m² | - |
| 1777397171 | 12.78° C | 62% | 1019.3 hPa | 0 mm | - | 99 W/m² | - |
| 1777396868 | 13.33° C | 61% | 1019 hPa | 0 mm | - | 208 W/m² | - |
| 1777396261 | 12.78° C | 65% | 1018.5 hPa | 0 mm | - | 180 W/m² | - |
| 1777395652 | 12.22° C | 66% | 1018.5 hPa | 0 mm | - | 166 W/m² | - |
| 1777395349 | 11.67° C | 67% | 1018.7 hPa | 0 mm | - | 622 W/m² | - |
| 1777394136 | 11.11° C | 68% | 1018.8 hPa | 0 mm | - | 109 W/m² | - |
| 1777393832 | 10.56° C | 68% | 1019.1 hPa | 0 mm | - | 94 W/m² | - |
| 1777393530 | 10.56° C | 68% | 1019.8 hPa | 0 mm | - | 55 W/m² | - |
| 1777392315 | 11.67° C | 63% | 1019.4 hPa | 0 mm | - | 108 W/m² | - |
| 1777390794 | 10.56° C | 72% | 1019.4 hPa | 0 mm | - | 104 W/m² | - |
| 1777390490 | 10.56° C | 72% | 1019.6 hPa | 0 mm | - | 109 W/m² | - |
| 1777389883 | 10.56° C | 72% | 1020 hPa | 0 mm | - | 94 W/m² | - |
* Rain latest hour (hover to see other rain measurements)
** Current wind speed in m/s (hover to see current wind gust speed)